createdAt,value
2017-05-24T00:00:52.148Z,3.81
2017-05-24T00:01:52.132Z,3.84
2017-05-24T00:02:52.122Z,3.99
2017-05-24T00:03:51.809Z,3.93
2017-05-24T00:04:52.095Z,4.02
2017-05-24T00:05:52.083Z,3.96
2017-05-24T00:06:52.065Z,4
2017-05-24T00:07:52.051Z,3.92
2017-05-24T00:08:52.042Z,3.98
2017-05-24T00:09:52.030Z,3.82
2017-05-24T00:10:52.018Z,3.82
2017-05-24T00:11:52.002Z,3.88
2017-05-24T00:12:51.987Z,4
2017-05-24T00:13:51.988Z,4.11
2017-05-24T00:14:51.965Z,4.17
2017-05-24T00:15:51.952Z,4.11
2017-05-24T00:16:51.638Z,4.02
2017-05-24T00:17:51.627Z,4.1
2017-05-24T00:18:51.917Z,4.1
2017-05-24T00:19:51.906Z,4.13
2017-05-24T00:20:51.891Z,4.07
2017-05-24T00:21:51.877Z,4.1
2017-05-24T00:22:51.869Z,4.08
2017-05-24T00:23:51.851Z,4.02
2017-05-24T00:24:51.839Z,3.98
2017-05-24T00:26:05.211Z,3.95
2017-05-24T00:26:51.515Z,3.96
2017-05-24T00:27:51.806Z,3.92
2017-05-24T00:28:51.794Z,3.95
2017-05-24T00:29:51.990Z,3.95
2017-05-24T00:30:51.464Z,3.96
2017-05-24T00:31:51.757Z,3.95
2017-05-24T00:32:51.742Z,3.86
2017-05-24T00:33:51.726Z,3.86
2017-05-24T00:34:51.415Z,3.82
2017-05-24T00:35:51.706Z,4
2017-05-24T00:36:51.693Z,3.95
2017-05-24T00:37:51.674Z,3.9
2017-05-24T00:38:51.665Z,4.06
2017-05-24T00:39:51.656Z,4
2017-05-24T00:40:51.642Z,3.98
2017-05-24T00:41:51.628Z,3.98
2017-05-24T00:42:51.615Z,3.99
2017-05-24T00:43:51.601Z,4.08
2017-05-24T00:44:51.593Z,4.11
2017-05-24T00:45:51.287Z,4
2017-05-24T00:46:51.564Z,3.96
2017-05-24T00:47:51.550Z,3.96
2017-05-24T00:48:51.244Z,3.81
2017-05-24T00:49:51.527Z,3.92
2017-05-24T00:50:51.211Z,3.8
2017-05-24T00:51:51.205Z,4
2017-05-24T00:52:51.487Z,3.77
2017-05-24T00:53:51.478Z,3.8
2017-05-24T00:54:51.463Z,3.82
2017-05-24T00:55:51.448Z,3.8
2017-05-24T00:56:51.440Z,3.8
2017-05-24T00:57:51.424Z,3.6
2017-05-24T00:58:51.414Z,3.67
2017-05-24T00:59:51.401Z,3.72
2017-05-24T01:00:51.386Z,3.72
2017-05-24T01:02:04.461Z,3.72
2017-05-24T01:02:51.359Z,3.71
2017-05-24T01:03:51.348Z,3.78
2017-05-24T01:04:51.338Z,3.9
2017-05-24T01:05:51.325Z,3.88
2017-05-24T01:06:51.309Z,3.95
2017-05-24T01:07:51.294Z,3.9
2017-05-24T01:08:51.284Z,3.88
2017-05-24T01:09:51.269Z,3.84
2017-05-24T01:10:51.457Z,3.95
2017-05-24T01:11:51.243Z,3.96
2017-05-24T01:12:51.229Z,3.93
2017-05-24T01:13:51.219Z,4.06
2017-05-24T01:14:51.206Z,4.08
2017-05-24T01:15:51.194Z,4.16
2017-05-24T01:16:51.175Z,4.17
2017-05-24T01:17:50.870Z,4.07
2017-05-24T01:18:51.159Z,3.99
2017-05-24T01:19:51.143Z,3.99
2017-05-24T01:20:51.131Z,3.81
2017-05-24T01:21:51.120Z,3.68
2017-05-24T01:22:51.112Z,3.72
2017-05-24T01:23:50.799Z,3.81
2017-05-24T01:24:51.078Z,3.89
2017-05-24T01:25:51.071Z,3.67
2017-05-24T01:26:51.058Z,3.81
2017-05-24T01:27:51.042Z,3.78
2017-05-24T01:28:51.033Z,3.71
2017-05-24T01:29:51.018Z,3.86
2017-05-24T01:30:50.701Z,3.8
2017-05-24T01:31:50.696Z,3.9
2017-05-24T01:32:50.982Z,3.81
2017-05-24T01:33:50.669Z,3.8
2017-05-24T01:34:50.952Z,3.77
2017-05-24T01:35:50.943Z,3.82
2017-05-24T01:36:50.929Z,3.82
2017-05-24T01:37:51.129Z,3.82
2017-05-24T01:38:50.900Z,3.72
2017-05-24T01:39:50.891Z,3.7
2017-05-24T01:40:50.879Z,3.7
2017-05-24T01:41:50.868Z,3.77
2017-05-24T01:43:04.253Z,3.71
2017-05-24T01:43:50.842Z,3.7
2017-05-24T01:44:50.830Z,3.67
2017-05-24T01:45:50.811Z,3.71
2017-05-24T01:46:51.000Z,3.71
2017-05-24T01:47:50.789Z,3.67
2017-05-24T01:48:50.773Z,3.68
2017-05-24T01:49:50.758Z,3.7
2017-05-24T01:50:50.744Z,3.64
2017-05-24T01:51:50.733Z,3.68
2017-05-24T01:52:50.718Z,3.8
2017-05-24T01:53:50.709Z,3.82
2017-05-24T01:54:50.390Z,3.67
2017-05-24T01:55:50.676Z,3.7
2017-05-24T01:56:50.361Z,3.68
2017-05-24T01:57:50.347Z,3.8
2017-05-24T01:58:50.636Z,3.84
2017-05-24T01:59:50.627Z,3.74
2017-05-24T02:00:50.307Z,3.68
2017-05-24T02:01:50.294Z,3.67
2017-05-24T02:02:50.020Z,3.74
2017-05-24T02:03:50.265Z,3.78
2017-05-24T02:04:50.248Z,3.81
2017-05-24T02:05:50.237Z,3.88
2017-05-24T02:06:50.223Z,3.86
2017-05-24T02:07:50.517Z,3.8
2017-05-24T02:08:50.505Z,3.96
2017-05-24T02:09:50.193Z,3.98
2017-05-24T02:10:50.171Z,3.88
2017-05-24T02:11:50.158Z,3.77
2017-05-24T02:12:50.143Z,3.64
2017-05-24T02:13:50.136Z,3.68
2017-05-24T02:14:50.422Z,3.77
2017-05-24T02:15:50.104Z,3.9
2017-05-24T02:16:50.598Z,3.81
2017-05-24T02:17:50.081Z,3.96
2017-05-24T02:18:50.068Z,3.92
2017-05-24T02:19:50.355Z,3.99
2017-05-24T02:20:50.342Z,3.86
2017-05-24T02:21:50.328Z,3.84
2017-05-24T02:22:50.011Z,3.81
2017-05-24T02:23:50.301Z,3.88
2017-05-24T02:24:50.291Z,3.9
2017-05-24T02:25:50.276Z,3.88
2017-05-24T02:26:49.961Z,3.8
2017-05-24T02:27:50.255Z,3.77
2017-05-24T02:28:50.234Z,3.75
2017-05-24T02:29:50.220Z,3.78
2017-05-24T02:30:50.208Z,3.93
2017-05-24T02:31:50.198Z,3.8
2017-05-24T02:32:50.187Z,3.84
2017-05-24T02:33:50.176Z,3.68
2017-05-24T02:34:50.163Z,3.81
2017-05-24T02:35:50.147Z,3.86
2017-05-24T02:36:50.134Z,3.8
2017-05-24T02:37:50.118Z,3.81
2017-05-24T02:38:49.808Z,3.82
2017-05-24T02:39:50.109Z,3.78
2017-05-24T02:40:50.084Z,3.95
2017-05-24T02:41:49.465Z,3.68
2017-05-24T02:42:49.455Z,3.8
2017-05-24T02:43:49.439Z,3.8
2017-05-24T02:44:49.731Z,3.67
2017-05-24T02:45:50.022Z,3.68
2017-05-24T02:46:50.004Z,3.81
2017-05-24T02:47:49.992Z,3.71
2017-05-24T02:48:49.985Z,3.74
2017-05-24T02:49:49.972Z,3.67
2017-05-24T02:50:49.957Z,3.7
2017-05-24T02:51:49.941Z,3.63
2017-05-24T02:52:49.934Z,3.6
2017-05-24T02:53:49.616Z,3.68
2017-05-24T02:54:49.912Z,3.57
2017-05-24T02:55:49.890Z,3.68
2017-05-24T02:56:49.884Z,3.64
2017-05-24T02:57:49.865Z,3.71
2017-05-24T02:58:49.851Z,3.6
2017-05-24T02:59:49.538Z,3.64
2017-05-24T03:00:49.526Z,3.64
2017-05-24T03:01:49.811Z,3.68
2017-05-24T03:02:49.501Z,3.71
2017-05-24T03:03:49.792Z,3.68
2017-05-24T03:04:49.775Z,3.8
2017-05-24T03:05:49.759Z,3.72
2017-05-24T03:06:49.743Z,3.78
2017-05-24T03:07:49.738Z,3.67
2017-05-24T03:08:49.426Z,3.7
2017-05-24T03:09:49.109Z,3.7
2017-05-24T03:10:49.706Z,3.7
2017-05-24T03:11:49.384Z,3.59
2017-05-24T03:12:49.371Z,3.54
2017-05-24T03:13:49.661Z,3.67
2017-05-24T03:14:49.648Z,3.57
2017-05-24T03:15:49.635Z,3.59
2017-05-24T03:16:49.613Z,3.59
2017-05-24T03:17:49.305Z,3.57
2017-05-24T03:18:49.593Z,3.59
2017-05-24T03:19:49.590Z,3.62
2017-05-24T03:20:49.264Z,3.6
2017-05-24T03:21:49.551Z,3.68
2017-05-24T03:22:49.238Z,3.59
2017-05-24T03:23:49.586Z,3.6
2017-05-24T03:24:49.517Z,3.62
2017-05-24T03:25:49.500Z,3.54
2017-05-24T03:26:49.189Z,3.7
2017-05-24T03:27:49.471Z,3.67
2017-05-24T03:28:48.856Z,3.6
2017-05-24T03:29:49.146Z,3.52
2017-05-24T03:30:49.434Z,3.7
2017-05-24T03:31:49.419Z,3.54
2017-05-24T03:32:49.405Z,3.57
2017-05-24T03:33:49.397Z,3.5
2017-05-24T03:34:49.380Z,3.46
2017-05-24T03:35:49.369Z,3.54
2017-05-24T03:36:49.050Z,3.37
2017-05-24T03:37:49.342Z,3.37
2017-05-24T03:38:49.329Z,3.35
2017-05-24T03:39:49.316Z,3.44
2017-05-24T03:40:48.996Z,3.41
2017-05-24T03:41:48.990Z,3.56
2017-05-24T03:42:49.275Z,3.45
2017-05-24T03:43:49.261Z,3.52
2017-05-24T03:44:49.247Z,3.45
2017-05-24T03:45:48.996Z,3.45
2017-05-24T03:46:49.222Z,3.54
2017-05-24T03:47:49.209Z,3.46
2017-05-24T03:48:49.195Z,3.44
2017-05-24T03:49:49.186Z,3.42
2017-05-24T03:50:48.868Z,3.42
2017-05-24T03:51:48.550Z,3.42
2017-05-24T03:52:48.537Z,3.57
2017-05-24T03:53:49.129Z,3.56
2017-05-24T03:54:48.815Z,3.64
2017-05-24T03:55:48.498Z,3.68
2017-05-24T03:56:49.093Z,3.7
2017-05-24T03:57:49.074Z,3.57
2017-05-24T03:58:48.766Z,3.7
2017-05-24T03:59:49.048Z,3.63
2017-05-24T04:00:49.039Z,3.68
2017-05-24T04:01:48.420Z,3.71
2017-05-24T04:02:49.012Z,3.68
2017-05-24T04:03:49.002Z,3.56
2017-05-24T04:04:48.983Z,3.64
2017-05-24T04:05:48.974Z,3.64
2017-05-24T04:06:48.962Z,3.64
2017-05-24T04:07:48.946Z,3.53
2017-05-24T04:08:48.935Z,3.57
2017-05-24T04:09:48.926Z,3.59
2017-05-24T04:10:48.912Z,3.68
2017-05-24T04:11:48.901Z,3.56
2017-05-24T04:12:48.886Z,3.57
2017-05-24T04:13:48.874Z,3.64
2017-05-24T04:14:48.860Z,3.62
2017-05-24T04:15:48.849Z,3.67
2017-05-24T04:16:48.835Z,3.64
2017-05-24T04:17:48.824Z,3.46
2017-05-24T04:18:48.812Z,3.57
2017-05-24T04:19:48.796Z,3.56
2017-05-24T04:20:48.780Z,3.71
2017-05-24T04:21:48.768Z,3.74
2017-05-24T04:22:48.757Z,3.63
2017-05-24T04:23:48.743Z,3.62
2017-05-24T04:24:48.733Z,3.59
2017-05-24T04:25:48.719Z,3.45
2017-05-24T04:26:48.708Z,3.41
2017-05-24T04:27:48.703Z,3.46
2017-05-24T04:28:48.679Z,3.42
2017-05-24T04:29:48.666Z,3.41
2017-05-24T04:30:48.654Z,3.57
2017-05-24T04:31:48.643Z,3.57
2017-05-24T04:32:48.330Z,3.63
2017-05-24T04:33:48.317Z,3.54
2017-05-24T04:34:48.597Z,3.6
2017-05-24T04:35:48.586Z,3.45
2017-05-24T04:36:48.573Z,3.37
2017-05-24T04:37:48.273Z,3.44
2017-05-24T04:38:48.551Z,3.44
2017-05-24T04:39:48.536Z,3.46
2017-05-24T04:40:48.521Z,3.41
2017-05-24T04:41:48.555Z,3.44
2017-05-24T04:42:48.493Z,3.41
2017-05-24T04:43:48.495Z,3.42
2017-05-24T04:44:48.165Z,3.46
2017-05-24T04:45:48.457Z,3.56
2017-05-24T04:46:48.440Z,3.39
2017-05-24T04:47:48.427Z,3.45
2017-05-24T04:48:48.415Z,3.53
2017-05-24T04:49:48.401Z,3.67
2017-05-24T04:50:48.402Z,3.67
2017-05-24T04:51:48.381Z,3.7
2017-05-24T04:52:48.360Z,3.6
2017-05-24T04:53:48.345Z,3.57
2017-05-24T04:54:48.332Z,3.53
2017-05-24T04:55:48.022Z,3.46
2017-05-24T04:56:48.302Z,3.25
2017-05-24T04:57:48.300Z,3.3
2017-05-24T04:58:48.286Z,3.3
2017-05-24T04:59:48.267Z,3.39
2017-05-24T05:00:47.951Z,3.31
2017-05-24T05:01:48.245Z,3.39
2017-05-24T05:02:48.230Z,3.31
2017-05-24T05:03:48.222Z,3.31
2017-05-24T05:04:48.207Z,3.37
2017-05-24T05:05:48.189Z,3.3
2017-05-24T05:06:48.174Z,3.42
2017-05-24T05:07:48.161Z,3.39
2017-05-24T05:08:47.850Z,3.37
2017-05-24T05:09:48.134Z,3.39
2017-05-24T05:10:48.121Z,3.41
2017-05-24T05:11:48.106Z,3.53
2017-05-24T05:12:48.094Z,3.59
2017-05-24T05:13:48.080Z,3.46
2017-05-24T05:14:48.063Z,3.53
2017-05-24T05:15:48.057Z,3.56
2017-05-24T05:16:48.040Z,3.54
2017-05-24T05:17:48.029Z,3.52
2017-05-24T05:18:48.015Z,3.53
2017-05-24T05:19:47.699Z,3.57
2017-05-24T05:20:47.983Z,3.44
2017-05-24T05:21:47.675Z,3.53
2017-05-24T05:22:47.961Z,3.57
2017-05-24T05:23:47.643Z,3.46
2017-05-24T05:24:47.938Z,3.42
2017-05-24T05:25:47.619Z,3.52
2017-05-24T05:26:47.604Z,3.35
2017-05-24T05:27:47.593Z,3.49
2017-05-24T05:28:47.580Z,3.59
2017-05-24T05:29:47.578Z,3.53
2017-05-24T05:30:47.859Z,3.54
2017-05-24T05:31:47.539Z,3.49
2017-05-24T05:32:47.527Z,3.54
2017-05-24T05:33:47.820Z,3.42
2017-05-24T05:34:47.801Z,3.26
2017-05-24T05:35:47.786Z,3.3
2017-05-24T05:36:47.778Z,3.39
2017-05-24T05:37:47.760Z,3.45
2017-05-24T05:38:47.750Z,3.41
2017-05-24T05:39:47.131Z,3.46
2017-05-24T05:40:47.118Z,3.39
2017-05-24T05:41:47.709Z,3.42
2017-05-24T05:42:47.692Z,3.41
2017-05-24T05:43:47.383Z,3.31
2017-05-24T05:44:47.374Z,3.37
2017-05-24T05:45:47.355Z,3.37
2017-05-24T05:46:47.701Z,3.31
2017-05-24T05:47:47.327Z,3.39
2017-05-24T05:48:47.622Z,3.42
2017-05-24T05:49:47.600Z,3.3
2017-05-24T05:50:47.589Z,3.41
2017-05-24T05:51:47.577Z,3.45
2017-05-24T05:52:47.262Z,3.7
2017-05-24T05:53:47.552Z,3.68
2017-05-24T05:54:47.533Z,3.68
2017-05-24T05:55:47.223Z,3.53
2017-05-24T05:56:47.507Z,3.39
2017-05-24T05:57:47.498Z,3.26
2017-05-24T05:58:47.483Z,3.39
2017-05-24T05:59:47.170Z,3.25
2017-05-24T06:00:47.454Z,3.39
2017-05-24T06:01:47.141Z,3.19
2017-05-24T06:02:47.137Z,3.33
2017-05-24T06:03:47.109Z,3.25
2017-05-24T06:04:47.397Z,3.3
2017-05-24T06:05:47.083Z,3.34
2017-05-24T06:06:47.069Z,3.22
2017-05-24T06:07:47.057Z,3.23
2017-05-24T06:08:47.045Z,3.23
2017-05-24T06:09:47.325Z,3.17
2017-05-24T06:10:47.317Z,3.19
2017-05-24T06:11:47.001Z,3.16
2017-05-24T06:12:46.682Z,3.17
2017-05-24T06:13:47.272Z,3.12
2017-05-24T06:14:47.261Z,3.17
2017-05-24T06:15:47.242Z,3.3
2017-05-24T06:16:47.231Z,3.25
2017-05-24T06:17:47.218Z,3.28
2017-05-24T06:18:47.209Z,2.99
2017-05-24T06:19:47.194Z,3.15
2017-05-24T06:20:46.878Z,3.1
2017-05-24T06:21:46.861Z,3.13
2017-05-24T06:22:47.147Z,2.98
2017-05-24T06:23:47.130Z,3.1
2017-05-24T06:24:47.119Z,3.12
2017-05-24T06:25:47.103Z,3.05
2017-05-24T06:26:47.088Z,2.92
2017-05-24T06:27:47.081Z,3.15
2017-05-24T06:28:47.060Z,3.17
2017-05-24T06:29:47.048Z,3.17
2017-05-24T06:30:47.032Z,3.12
2017-05-24T06:31:47.018Z,2.95
2017-05-24T06:32:46.999Z,2.95
2017-05-24T06:33:46.992Z,2.99
2017-05-24T06:34:46.983Z,2.97
2017-05-24T06:35:46.657Z,2.98
2017-05-24T06:36:46.946Z,2.98
2017-05-24T06:37:46.929Z,2.94
2017-05-24T06:38:46.919Z,2.98
2017-05-24T06:39:46.907Z,3.08
2017-05-24T06:40:46.888Z,2.97
2017-05-24T06:41:46.875Z,3.08
2017-05-24T06:42:46.862Z,3.01
2017-05-24T06:43:46.549Z,3.04
2017-05-24T06:44:46.834Z,2.97
2017-05-24T06:45:46.815Z,2.95
2017-05-24T06:46:46.804Z,2.95
2017-05-24T06:47:46.782Z,3.04
2017-05-24T06:48:46.782Z,2.99
2017-05-24T06:49:46.168Z,3.02
2017-05-24T06:50:46.745Z,2.94
2017-05-24T06:51:46.727Z,2.95
2017-05-24T06:52:46.717Z,2.98
2017-05-24T06:53:46.698Z,2.95
2017-05-24T06:54:46.720Z,2.9
2017-05-24T06:55:46.365Z,2.92
2017-05-24T06:56:46.655Z,2.84
2017-05-24T06:57:46.649Z,2.97
2017-05-24T06:58:46.327Z,2.97
2017-05-24T06:59:46.612Z,2.9
2017-05-24T07:00:46.596Z,2.94
2017-05-24T07:01:46.580Z,2.94
2017-05-24T07:02:46.570Z,2.98
2017-05-24T07:03:46.554Z,2.97
2017-05-24T07:04:46.545Z,3.02
2017-05-24T07:05:46.517Z,2.9
2017-05-24T07:06:46.269Z,2.98
2017-05-24T07:07:46.488Z,2.87
2017-05-24T07:08:46.176Z,2.92
2017-05-24T07:09:46.463Z,2.94
2017-05-24T07:10:46.445Z,2.89
2017-05-24T07:11:46.431Z,2.89
2017-05-24T07:12:46.115Z,2.92
2017-05-24T07:13:46.107Z,3.12
2017-05-24T07:14:46.101Z,3.19
2017-05-24T07:15:45.767Z,3.08
2017-05-24T07:16:46.057Z,3.12
2017-05-24T07:17:46.045Z,3.13
2017-05-24T07:18:46.030Z,3.23
2017-05-24T07:19:46.012Z,3.19
2017-05-24T07:20:45.999Z,3.35
2017-05-24T07:21:45.988Z,3.45
2017-05-24T07:22:45.973Z,3.52
2017-05-24T07:23:45.658Z,3.37
2017-05-24T07:24:45.946Z,3.41
2017-05-24T07:25:45.930Z,3.26
2017-05-24T07:26:45.915Z,3.25
2017-05-24T07:27:45.903Z,3.42
2017-05-24T07:28:46.196Z,3.44
2017-05-24T07:29:46.173Z,3.42
2017-05-24T07:30:45.860Z,3.45
2017-05-24T07:31:46.151Z,3.63
2017-05-24T07:32:45.835Z,3.64
2017-05-24T07:33:46.125Z,3.54
2017-05-24T07:34:46.110Z,3.67
2017-05-24T07:35:46.093Z,3.68
2017-05-24T07:36:46.087Z,3.7
2017-05-24T07:37:46.069Z,3.71
2017-05-24T07:38:46.054Z,3.77
2017-05-24T07:39:45.736Z,3.89
2017-05-24T07:40:46.022Z,3.82
2017-05-24T07:41:46.014Z,3.53
2017-05-24T07:42:46.001Z,3.49
2017-05-24T07:43:45.986Z,3.41
2017-05-24T07:44:45.969Z,3.41
2017-05-24T07:45:45.952Z,3.37
2017-05-24T07:46:45.943Z,3.37
2017-05-24T07:47:45.931Z,3.16
2017-05-24T07:48:45.914Z,3.26
2017-05-24T07:49:45.898Z,3.35
2017-05-24T07:50:45.884Z,3.26
2017-05-24T07:51:45.869Z,3.26
2017-05-24T07:52:45.864Z,3.16
2017-05-24T07:53:45.851Z,3.26
2017-05-24T07:54:45.529Z,3.45
2017-05-24T07:55:45.518Z,3.64
2017-05-24T07:56:45.802Z,3.8
2017-05-24T07:57:45.793Z,3.9
2017-05-24T07:58:45.783Z,3.93
2017-05-24T07:59:45.765Z,3.99
2017-05-24T08:00:45.750Z,4.17
2017-05-24T08:01:45.740Z,4.26
2017-05-24T08:02:45.724Z,4.06
2017-05-24T08:03:45.707Z,3.95
2017-05-24T08:04:45.699Z,3.9
2017-05-24T08:05:45.681Z,3.74
2017-05-24T08:06:45.671Z,3.81
2017-05-24T08:07:45.658Z,4.08
2017-05-24T08:08:45.711Z,4.18
2017-05-24T08:09:45.689Z,4.21
2017-05-24T08:10:45.618Z,4.5
2017-05-24T08:11:45.607Z,4.61
2017-05-24T08:12:45.586Z,4.38
2017-05-24T08:13:45.576Z,4.1
2017-05-24T08:14:45.565Z,4.14
2017-05-24T08:15:45.547Z,4.17
2017-05-24T08:16:45.533Z,3.95
2017-05-24T08:17:45.521Z,4.13
2017-05-24T08:18:45.505Z,4.06
2017-05-24T08:19:45.493Z,4.02
2017-05-24T08:20:45.473Z,3.6
2017-05-24T08:21:45.467Z,3.74
2017-05-24T08:22:45.448Z,3.68
2017-05-24T08:23:45.435Z,3.46
2017-05-24T08:24:45.426Z,3.37
2017-05-24T08:25:45.409Z,3.53
2017-05-24T08:26:45.095Z,3.68
2017-05-24T08:27:45.384Z,3.82
2017-05-24T08:28:45.372Z,3.81
2017-05-24T08:29:45.355Z,4
2017-05-24T08:30:45.347Z,3.95
2017-05-24T08:31:45.327Z,3.77
2017-05-24T08:32:45.012Z,4.08
2017-05-24T08:33:45.296Z,4.07
2017-05-24T08:34:44.987Z,4.2
2017-05-24T08:35:44.966Z,4.06
2017-05-24T08:36:45.258Z,4.11
2017-05-24T08:37:44.637Z,3.82
2017-05-24T08:38:45.228Z,3.75
2017-05-24T08:39:45.213Z,3.62
2017-05-24T08:40:45.200Z,3.78
2017-05-24T08:41:45.189Z,3.67
2017-05-24T08:42:45.178Z,3.72
2017-05-24T08:43:44.853Z,3.98
2017-05-24T08:44:45.195Z,4.25
2017-05-24T08:45:45.133Z,4.49
2017-05-24T08:46:45.118Z,4.38
2017-05-24T08:47:45.104Z,4.32
2017-05-24T08:48:45.091Z,4.07
2017-05-24T08:49:45.071Z,3.59
2017-05-24T08:50:45.066Z,3.52
2017-05-24T08:51:45.046Z,3.37
2017-05-24T08:52:44.748Z,3.54
2017-05-24T08:53:45.019Z,3.62
2017-05-24T08:54:45.010Z,3.57
2017-05-24T08:55:44.993Z,3.67
2017-05-24T08:56:44.982Z,3.63
2017-05-24T08:57:44.965Z,3.77
2017-05-24T08:58:44.950Z,3.6
2017-05-24T08:59:44.933Z,3.59
2017-05-24T09:00:44.922Z,3.78
2017-05-24T09:01:44.909Z,3.98
2017-05-24T09:02:44.897Z,4.14
2017-05-24T09:03:44.877Z,4.17
2017-05-24T09:04:44.566Z,4.04
2017-05-24T09:05:44.850Z,4.17
2017-05-24T09:06:44.841Z,3.82
2017-05-24T09:07:44.826Z,3.86
2017-05-24T09:08:44.510Z,3.84
2017-05-24T09:09:44.803Z,3.98
2017-05-24T09:10:44.482Z,4.2
2017-05-24T09:11:44.773Z,4.35
2017-05-24T09:12:44.763Z,4.11
2017-05-24T09:13:44.745Z,4.02
2017-05-24T09:14:44.729Z,3.95
2017-05-24T09:15:44.714Z,3.74
2017-05-24T09:16:44.714Z,3.63
2017-05-24T09:17:44.690Z,3.82
2017-05-24T09:18:44.686Z,3.7
2017-05-24T09:19:44.667Z,3.7
2017-05-24T09:20:44.650Z,3.54
2017-05-24T09:21:44.637Z,3.53
2017-05-24T09:22:44.623Z,3.78
2017-05-24T09:23:44.310Z,3.71
2017-05-24T09:24:44.592Z,3.45
2017-05-24T09:25:44.582Z,3.67
2017-05-24T09:26:44.267Z,4.5
2017-05-24T09:27:44.557Z,4.07
2017-05-24T09:28:44.540Z,3.63
2017-05-24T09:29:44.523Z,3.34
2017-05-24T09:30:44.511Z,3.37
2017-05-24T09:31:44.492Z,3.04
2017-05-24T09:32:44.489Z,2.84
2017-05-24T09:33:44.481Z,2.98
2017-05-24T09:34:44.458Z,3.22
2017-05-24T09:35:44.440Z,3.1
2017-05-24T09:36:44.122Z,2.9
2017-05-24T09:37:44.410Z,2.97
2017-05-24T09:38:44.395Z,2.98
2017-05-24T09:39:44.383Z,3.31
2017-05-24T09:40:44.367Z,3.23
2017-05-24T09:41:44.350Z,3.31
2017-05-24T09:42:44.342Z,2.99
2017-05-24T09:43:44.021Z,3.02
2017-05-24T09:44:44.006Z,3.12
2017-05-24T09:45:44.298Z,3.1
2017-05-24T09:46:43.976Z,2.97
2017-05-24T09:47:43.963Z,3.05
2017-05-24T09:48:43.944Z,3.22
2017-05-24T09:49:44.233Z,3.17
2017-05-24T09:50:43.614Z,3.57
2017-05-24T09:51:43.902Z,3.33
2017-05-24T09:52:43.890Z,3.52
2017-05-24T09:53:43.873Z,3.42
2017-05-24T09:54:43.925Z,3.59
2017-05-24T09:55:44.154Z,3.63
2017-05-24T09:56:44.132Z,3.68
2017-05-24T09:57:44.122Z,3.39
2017-05-24T09:58:44.100Z,3.37
2017-05-24T09:59:44.087Z,3.41
2017-05-24T10:00:44.076Z,3.35
2017-05-24T10:01:44.065Z,3.41
2017-05-24T10:02:44.048Z,3.92
2017-05-24T10:03:44.031Z,3.84
2017-05-24T10:04:44.017Z,3.46
2017-05-24T10:05:43.702Z,3.33
2017-05-24T10:06:43.983Z,3.08
2017-05-24T10:07:43.976Z,2.92
2017-05-24T10:08:43.960Z,2.94
2017-05-24T10:09:43.945Z,3.49
2017-05-24T10:10:43.929Z,3.8
2017-05-24T10:11:43.914Z,3.67
2017-05-24T10:12:43.905Z,3.56
2017-05-24T10:13:43.887Z,3.56
2017-05-24T10:14:43.868Z,3.39
2017-05-24T10:15:43.856Z,3.54
2017-05-24T10:16:43.547Z,4.08
2017-05-24T10:17:43.824Z,4.2
2017-05-24T10:18:43.814Z,4.17
2017-05-24T10:19:43.803Z,4.29
2017-05-24T10:20:43.789Z,4.18
2017-05-24T10:21:43.474Z,4.14
2017-05-24T10:22:43.755Z,3.6
2017-05-24T10:23:43.747Z,3.41
2017-05-24T10:24:43.730Z,3.17
2017-05-24T10:25:43.713Z,3.04
2017-05-24T10:26:43.706Z,3.13
2017-05-24T10:27:43.691Z,3.52
2017-05-24T10:28:43.068Z,3.8
2017-05-24T10:29:43.656Z,3.78
2017-05-24T10:30:43.644Z,3.8
2017-05-24T10:31:43.328Z,4.13
2017-05-24T10:32:43.314Z,4.18
2017-05-24T10:33:43.610Z,4.46
2017-05-24T10:34:43.288Z,4.5
2017-05-24T10:35:43.271Z,4.5
2017-05-24T10:36:43.556Z,4.02
2017-05-24T10:37:43.548Z,4.21
2017-05-24T10:38:43.533Z,4.1
2017-05-24T10:39:43.520Z,4.07
2017-05-24T10:40:43.201Z,4.38
2017-05-24T10:41:43.497Z,4.5
2017-05-24T10:42:43.177Z,4.51
2017-05-24T10:43:43.169Z,4.49
2017-05-24T10:44:43.449Z,4.11
2017-05-24T10:45:43.434Z,4.13
2017-05-24T10:46:43.422Z,4.35
2017-05-24T10:47:43.107Z,4.79
2017-05-24T10:48:43.396Z,4.5
2017-05-24T10:49:43.382Z,4.54
2017-05-24T10:50:43.065Z,4.5
2017-05-24T10:51:43.051Z,4.18
2017-05-24T10:52:43.045Z,4.17
2017-05-24T10:53:43.023Z,4.32
2017-05-24T10:54:43.311Z,4.69
2017-05-24T10:55:42.994Z,4.69
2017-05-24T10:56:42.684Z,4.84
2017-05-24T10:57:42.968Z,5.35
2017-05-24T10:58:42.962Z,5.55
2017-05-24T10:59:43.245Z,5.59
2017-05-24T11:00:43.232Z,5.66
2017-05-24T11:01:42.916Z,5.93
2017-05-24T11:02:42.906Z,5.99
2017-05-24T11:03:42.899Z,5.87
2017-05-24T11:04:42.883Z,5.58
2017-05-24T11:05:42.865Z,5.47
2017-05-24T11:06:43.154Z,5.69
2017-05-24T11:07:42.841Z,5.85
2017-05-24T11:08:42.826Z,5.88
2017-05-24T11:09:43.119Z,5.81
2017-05-24T11:10:43.101Z,5.26
2017-05-24T11:11:43.091Z,4.93
2017-05-24T11:12:43.081Z,5.56
2017-05-24T11:13:43.066Z,5.42
2017-05-24T11:14:43.047Z,5.42
2017-05-24T11:15:43.060Z,4.53
2017-05-24T11:16:43.084Z,4.49
2017-05-24T11:17:43.015Z,4.83
2017-05-24T11:18:43.004Z,4.61
2017-05-24T11:19:42.682Z,5.09
2017-05-24T11:20:42.971Z,4.77
2017-05-24T11:21:42.960Z,4.56
2017-05-24T11:22:42.644Z,4.9
2017-05-24T11:23:42.938Z,4.67
2017-05-24T11:24:42.918Z,4.54
2017-05-24T11:25:42.909Z,4.79
2017-05-24T11:26:42.895Z,4.96
2017-05-24T11:27:42.887Z,4.59
2017-05-24T11:28:42.567Z,4.31
2017-05-24T11:29:42.257Z,4.2
2017-05-24T11:30:42.853Z,4.32
2017-05-24T11:31:42.828Z,3.81
2017-05-24T11:32:42.814Z,3.98
2017-05-24T11:33:42.803Z,3.98
2017-05-24T11:34:42.483Z,3.77
2017-05-24T11:35:42.470Z,3.8
2017-05-24T11:36:42.759Z,3.53
2017-05-24T11:37:42.743Z,3.5
2017-05-24T11:38:42.432Z,3.62
2017-05-24T11:39:42.415Z,3.67
2017-05-24T11:40:42.701Z,3.81
2017-05-24T11:41:42.742Z,3.84
2017-05-24T11:42:42.678Z,4.08
2017-05-24T11:43:42.667Z,3.78
2017-05-24T11:44:42.647Z,3.84
2017-05-24T11:45:42.636Z,3.81
2017-05-24T11:46:42.619Z,3.88
2017-05-24T11:47:42.608Z,4.06
2017-05-24T11:48:42.594Z,4.13
2017-05-24T11:49:42.582Z,4.17
2017-05-24T11:50:42.562Z,3.92
2017-05-24T11:51:42.609Z,3.99
2017-05-24T11:52:42.537Z,3.67
2017-05-24T11:53:42.522Z,3.7
2017-05-24T11:54:42.509Z,3.89
2017-05-24T11:55:42.499Z,3.93
2017-05-24T11:56:42.484Z,3.98
2017-05-24T11:57:42.473Z,4.04
2017-05-24T11:58:42.165Z,3.98
2017-05-24T11:59:42.444Z,3.99
2017-05-24T12:00:42.426Z,4.08
2017-05-24T12:01:42.410Z,4.21
2017-05-24T12:02:42.099Z,4.28
2017-05-24T12:03:42.386Z,4.21
2017-05-24T12:04:42.369Z,4.13
2017-05-24T12:05:41.755Z,4.18
2017-05-24T12:06:42.342Z,4.25
2017-05-24T12:07:42.026Z,4.11
2017-05-24T12:08:41.713Z,4.35
2017-05-24T12:09:42.304Z,4.5
2017-05-24T12:10:41.989Z,4.74
2017-05-24T12:11:42.276Z,4.86
2017-05-24T12:12:41.966Z,5.23
2017-05-24T12:13:41.951Z,5.55
2017-05-24T12:14:41.939Z,6.05
2017-05-24T12:15:41.622Z,6.05
2017-05-24T12:16:41.911Z,6.13
2017-05-24T12:17:41.900Z,5.81
2017-05-24T12:18:42.185Z,5.95
2017-05-24T12:19:42.175Z,5.84
2017-05-24T12:20:42.164Z,5.85
2017-05-24T12:21:42.154Z,5.81
2017-05-24T12:22:42.139Z,5.44
2017-05-24T12:23:42.126Z,5.42
2017-05-24T12:24:42.112Z,5.37
2017-05-24T12:25:42.100Z,5.15
2017-05-24T12:26:42.087Z,5.37
2017-05-24T12:27:42.078Z,5.38
2017-05-24T12:28:42.066Z,5.14
2017-05-24T12:29:42.058Z,4.99
2017-05-24T12:30:42.039Z,4.9
2017-05-24T12:31:42.027Z,4.77
2017-05-24T12:32:42.028Z,4.71
2017-05-24T12:33:42.002Z,4.69
2017-05-24T12:34:41.992Z,4.67
2017-05-24T12:35:41.980Z,4.9
2017-05-24T12:36:41.965Z,5.14
2017-05-24T12:37:41.955Z,5.4
2017-05-24T12:38:41.943Z,5.4
2017-05-24T12:39:41.927Z,5.41
2017-05-24T12:40:41.919Z,5.44
2017-05-24T12:41:41.907Z,5.27
2017-05-24T12:42:41.897Z,5.06
2017-05-24T12:43:41.881Z,4.88
2017-05-24T12:44:41.869Z,4.64
2017-05-24T12:45:41.855Z,4.64
2017-05-24T12:46:41.840Z,4.39
2017-05-24T12:47:41.829Z,4.5
2017-05-24T12:48:41.816Z,4.42
2017-05-24T12:49:41.809Z,4.42
2017-05-24T12:50:41.796Z,4.51
2017-05-24T12:51:41.477Z,4.49
2017-05-24T12:52:41.465Z,4.67
2017-05-24T12:53:41.756Z,4.65
2017-05-24T12:54:41.442Z,4.35
2017-05-24T12:55:41.732Z,4.2
2017-05-24T12:56:41.715Z,4.29
2017-05-24T12:57:41.401Z,4.21
2017-05-24T12:58:41.692Z,4.18
2017-05-24T12:59:41.375Z,4.24
2017-05-24T13:00:41.669Z,4.13
2017-05-24T13:01:41.351Z,4.08
2017-05-24T13:02:41.338Z,4.17
2017-05-24T13:03:41.621Z,4.31
2017-05-24T13:04:41.608Z,4.13
2017-05-24T13:05:41.294Z,4.21
2017-05-24T13:06:41.587Z,4.14
2017-05-24T13:07:41.574Z,4.08
2017-05-24T13:08:41.566Z,4.07
2017-05-24T13:09:41.552Z,4.17
2017-05-24T13:10:41.536Z,4.25
2017-05-24T13:11:41.521Z,4
2017-05-24T13:12:41.508Z,4.11
2017-05-24T13:13:41.502Z,4.06
2017-05-24T13:14:41.527Z,4.14
2017-05-24T13:15:41.475Z,4.18
2017-05-24T13:16:41.454Z,4.13
2017-05-24T13:17:41.446Z,4.11
2017-05-24T13:18:41.437Z,3.99
2017-05-24T13:19:41.425Z,3.92
2017-05-24T13:20:41.104Z,3.98
2017-05-24T13:21:41.392Z,3.64
2017-05-24T13:22:41.385Z,3.72